sensor_id;sensor_type;location;lat;lon;timestamp;pressure;altitude;pressure_sealevel;temperature;humidity
65758;BME280;52495;52.208;5.158;2023-02-17T00:02:19;101799.88;;;9.91;100.00
65758;BME280;52495;52.208;5.158;2023-02-17T00:04:47;101795.56;;;9.82;100.00
65758;BME280;52495;52.208;5.158;2023-02-17T00:07:13;101798.16;;;9.81;100.00
65758;BME280;52495;52.208;5.158;2023-02-17T00:09:40;101798.16;;;9.78;100.00
65758;BME280;52495;52.208;5.158;2023-02-17T00:12:07;101795.56;;;9.84;100.00
65758;BME280;52495;52.208;5.158;2023-02-17T00:14:34;101789.56;;;9.82;100.00
65758;BME280;52495;52.208;5.158;2023-02-17T00:17:01;101792.13;;;9.80;100.00
65758;BME280;52495;52.208;5.158;2023-02-17T00:19:27;101789.56;;;9.82;100.00
65758;BME280;52495;52.208;5.158;2023-02-17T00:21:58;101799.88;;;9.83;100.00
65758;BME280;52495;52.208;5.158;2023-02-17T00:24:27;101801.59;;;9.80;100.00
65758;BME280;52495;52.208;5.158;2023-02-17T00:26:54;101804.16;;;9.83;100.00
65758;BME280;52495;52.208;5.158;2023-02-17T00:29:22;101799.00;;;9.83;100.00
65758;BME280;52495;52.208;5.158;2023-02-17T00:31:50;101789.56;;;9.83;100.00
65758;BME280;52495;52.208;5.158;2023-02-17T00:34:17;101793.84;;;9.83;100.00
65758;BME280;52495;52.208;5.158;2023-02-17T00:36:44;101799.00;;;9.81;100.00
65758;BME280;52495;52.208;5.158;2023-02-17T00:39:14;101793.84;;;9.83;100.00
65758;BME280;52495;52.208;5.158;2023-02-17T00:41:41;101792.16;;;9.79;100.00
65758;BME280;52495;52.208;5.158;2023-02-17T00:44:14;101787.84;;;9.78;100.00
65758;BME280;52495;52.208;5.158;2023-02-17T00:46:42;101786.09;;;9.75;100.00
65758;BME280;52495;52.208;5.158;2023-02-17T00:49:14;101779.22;;;9.72;100.00
65758;BME280;52495;52.208;5.158;2023-02-17T00:51:41;101785.25;;;9.76;100.00
65758;BME280;52495;52.208;5.158;2023-02-17T00:54:08;101775.78;;;9.69;100.00
65758;BME280;52495;52.208;5.158;2023-02-17T00:56:37;101781.78;;;9.74;100.00
65758;BME280;52495;52.208;5.158;2023-02-17T00:59:04;101786.09;;;9.74;100.00
65758;BME280;52495;52.208;5.158;2023-02-17T01:01:32;101774.09;;;9.76;100.00
65758;BME280;52495;52.208;5.158;2023-02-17T01:03:59;101787.84;;;9.75;100.00
65758;BME280;52495;52.208;5.158;2023-02-17T01:06:27;101777.53;;;9.75;100.00
65758;BME280;52495;52.208;5.158;2023-02-17T01:08:55;101784.41;;;9.71;100.00
65758;BME280;52495;52.208;5.158;2023-02-17T01:11:23;101781.78;;;9.62;100.00
65758;BME280;52495;52.208;5.158;2023-02-17T01:13:52;101793.81;;;9.63;100.00
65758;BME280;52495;52.208;5.158;2023-02-17T01:16:22;101789.50;;;9.59;100.00
65758;BME280;52495;52.208;5.158;2023-02-17T01:18:49;101790.38;;;9.57;100.00
65758;BME280;52495;52.208;5.158;2023-02-17T01:21:17;101780.06;;;9.57;100.00
65758;BME280;52495;52.208;5.158;2023-02-17T01:23:44;101786.09;;;9.53;100.00
65758;BME280;52495;52.208;5.158;2023-02-17T01:26:15;101797.22;;;9.45;100.00
65758;BME280;52495;52.208;5.158;2023-02-17T01:28:42;101792.94;;;9.47;100.00
65758;BME280;52495;52.208;5.158;2023-02-17T01:31:11;101787.75;;;9.40;100.00
65758;BME280;52495;52.208;5.158;2023-02-17T01:33:39;101787.75;;;9.40;100.00
65758;BME280;52495;52.208;5.158;2023-02-17T01:36:09;101792.06;;;9.41;100.00
65758;BME280;52495;52.208;5.158;2023-02-17T01:38:38;101775.72;;;9.39;100.00
65758;BME280;52495;52.208;5.158;2023-02-17T01:41:06;101790.34;;;9.39;100.00
65758;BME280;52495;52.208;5.158;2023-02-17T01:43:33;101792.06;;;9.37;100.00
65758;BME280;52495;52.208;5.158;2023-02-17T01:46:02;101793.78;;;9.38;100.00
65758;BME280;52495;52.208;5.158;2023-02-17T01:48:34;101781.69;;;9.32;100.00
65758;BME280;52495;52.208;5.158;2023-02-17T01:51:06;101781.72;;;9.34;100.00
65758;BME280;52495;52.208;5.158;2023-02-17T01:53:37;101790.31;;;9.36;100.00
65758;BME280;52495;52.208;5.158;2023-02-17T01:56:09;101786.91;;;9.37;100.00
65758;BME280;52495;52.208;5.158;2023-02-17T01:58:38;101779.16;;;9.34;100.00
65758;BME280;52495;52.208;5.158;2023-02-17T02:01:07;101776.59;;;9.37;100.00
65758;BME280;52495;52.208;5.158;2023-02-17T02:03:36;101764.56;;;9.40;100.00
65758;BME280;52495;52.208;5.158;2023-02-17T02:06:07;101749.94;;;9.35;100.00
65758;BME280;52495;52.208;5.158;2023-02-17T02:08:43;101751.66;;;9.34;100.00
65758;BME280;52495;52.208;5.158;2023-02-17T02:11:11;101739.63;;;9.33;100.00
65758;BME280;52495;52.208;5.158;2023-02-17T02:13:37;101732.75;;;9.34;100.00
65758;BME280;52495;52.208;5.158;2023-02-17T02:16:09;101726.75;;;9.38;100.00
65758;BME280;52495;52.208;5.158;2023-02-17T02:18:50;101730.16;;;9.35;100.00
65758;BME280;52495;52.208;5.158;2023-02-17T02:21:44;101730.16;;;9.31;100.00
65758;BME280;52495;52.208;5.158;2023-02-17T02:24:30;101729.31;;;9.32;100.00
65758;BME280;52495;52.208;5.158;2023-02-17T02:27:20;101718.13;;;9.25;100.00
65758;BME280;52495;52.208;5.158;2023-02-17T02:30:02;101728.44;;;9.26;100.00
65758;BME280;52495;52.208;5.158;2023-02-17T02:32:46;101718.13;;;9.23;100.00
65758;BME280;52495;52.208;5.158;2023-02-17T02:35:19;101723.25;;;9.23;100.00
65758;BME280;52495;52.208;5.158;2023-02-17T02:37:48;101719.84;;;9.23;100.00
65758;BME280;52495;52.208;5.158;2023-02-17T02:40:22;101723.28;;;9.20;100.00
65758;BME280;52495;52.208;5.158;2023-02-17T02:42:49;101717.28;;;9.23;100.00
65758;BME280;52495;52.208;5.158;2023-02-17T02:45:17;101713.84;;;9.24;100.00
65758;BME280;52495;52.208;5.158;2023-02-17T02:47:48;101719.84;;;9.20;100.00
65758;BME280;52495;52.208;5.158;2023-02-17T02:50:32;101711.25;;;9.19;100.00
65758;BME280;52495;52.208;5.158;2023-02-17T02:53:29;101706.97;;;9.21;100.00
65758;BME280;52495;52.208;5.158;2023-02-17T02:56:05;101712.97;;;9.23;100.00
65758;BME280;52495;52.208;5.158;2023-02-17T02:58:46;101716.38;;;9.22;100.00
65758;BME280;52495;52.208;5.158;2023-02-17T03:01:22;101715.53;;;9.22;100.00
65758;BME280;52495;52.208;5.158;2023-02-17T03:04:01;101718.97;;;9.21;100.00
65758;BME280;52495;52.208;5.158;2023-02-17T03:06:38;101711.25;;;9.16;100.00
65758;BME280;52495;52.208;5.158;2023-02-17T03:09:10;101724.97;;;9.12;100.00
65758;BME280;52495;52.208;5.158;2023-02-17T03:11:39;101707.78;;;9.06;100.00
65758;BME280;52495;52.208;5.158;2023-02-17T03:14:08;101700.06;;;9.13;100.00
65758;BME280;52495;52.208;5.158;2023-02-17T03:16:36;101694.06;;;9.15;100.00
65758;BME280;52495;52.208;5.158;2023-02-17T03:19:06;101698.34;;;9.10;100.00
65758;BME280;52495;52.208;5.158;2023-02-17T03:21:37;101686.31;;;9.09;100.00
65758;BME280;52495;52.208;5.158;2023-02-17T03:24:05;101681.16;;;9.03;100.00
65758;BME280;52495;52.208;5.158;2023-02-17T03:26:32;101670.84;;;9.07;100.00
65758;BME280;52495;52.208;5.158;2023-02-17T03:28:59;101659.72;;;9.11;100.00
65758;BME280;52495;52.208;5.158;2023-02-17T03:31:26;101660.56;;;9.14;100.00
65758;BME280;52495;52.208;5.158;2023-02-17T03:33:53;101656.28;;;9.14;100.00
65758;BME280;52495;52.208;5.158;2023-02-17T03:36:21;101658.84;;;9.16;100.00
65758;BME280;52495;52.208;5.158;2023-02-17T03:38:48;101650.25;;;9.12;100.00
65758;BME280;52495;52.208;5.158;2023-02-17T03:41:15;101658.00;;;9.15;100.00
65758;BME280;52495;52.208;5.158;2023-02-17T03:43:42;101655.41;;;9.15;100.00
65758;BME280;52495;52.208;5.158;2023-02-17T03:46:10;101654.56;;;9.19;100.00
65758;BME280;52495;52.208;5.158;2023-02-17T03:48:39;101661.44;;;9.19;100.00
65758;BME280;52495;52.208;5.158;2023-02-17T03:51:10;101664.88;;;9.19;100.00
65758;BME280;52495;52.208;5.158;2023-02-17T03:53:39;101654.56;;;9.19;100.00
65758;BME280;52495;52.208;5.158;2023-02-17T03:56:07;101648.53;;;9.16;100.00
65758;BME280;52495;52.208;5.158;2023-02-17T03:58:34;101654.56;;;9.19;100.00
65758;BME280;52495;52.208;5.158;2023-02-17T04:01:01;101646.81;;;9.18;100.00
65758;BME280;52495;52.208;5.158;2023-02-17T04:03:28;101657.13;;;9.16;100.00
65758;BME280;52495;52.208;5.158;2023-02-17T04:05:54;101657.97;;;9.17;100.00
65758;BME280;52495;52.208;5.158;2023-02-17T04:08:22;101660.56;;;9.17;100.00
65758;BME280;52495;52.208;5.158;2023-02-17T04:10:52;101654.56;;;9.13;100.00
65758;BME280;52495;52.208;5.158;2023-02-17T04:13:20;101653.69;;;9.16;100.00
65758;BME280;52495;52.208;5.158;2023-02-17T04:15:47;101661.41;;;9.16;100.00
65758;BME280;52495;52.208;5.158;2023-02-17T04:18:15;101670.88;;;9.14;100.00
65758;BME280;52495;52.208;5.158;2023-02-17T04:20:42;101679.47;;;9.14;100.00
65758;BME280;52495;52.208;5.158;2023-02-17T04:23:09;101670.03;;;9.16;100.00
65758;BME280;52495;52.208;5.158;2023-02-17T04:25:39;101668.28;;;9.15;100.00
65758;BME280;52495;52.208;5.158;2023-02-17T04:28:10;101658.00;;;9.15;100.00
65758;BME280;52495;52.208;5.158;2023-02-17T04:30:37;101647.69;;;9.17;100.00
65758;BME280;52495;52.208;5.158;2023-02-17T04:33:05;101655.44;;;9.21;100.00
65758;BME280;52495;52.208;5.158;2023-02-17T04:35:31;101645.97;;;9.19;100.00
65758;BME280;52495;52.208;5.158;2023-02-17T04:37:58;101650.25;;;9.24;100.00
65758;BME280;52495;52.208;5.158;2023-02-17T04:40:25;101649.41;;;9.24;100.00
65758;BME280;52495;52.208;5.158;2023-02-17T04:42:52;101646.81;;;9.25;100.00
65758;BME280;52495;52.208;5.158;2023-02-17T04:45:21;101632.25;;;9.31;100.00
65758;BME280;52495;52.208;5.158;2023-02-17T04:47:48;101628.81;;;9.32;100.00
65758;BME280;52495;52.208;5.158;2023-02-17T04:50:15;101627.94;;;9.31;100.00
65758;BME280;52495;52.208;5.158;2023-02-17T04:52:41;101637.41;;;9.34;100.00
65758;BME280;52495;52.208;5.158;2023-02-17T04:55:09;101632.22;;;9.32;100.00
65758;BME280;52495;52.208;5.158;2023-02-17T04:57:35;101629.66;;;9.40;100.00
65758;BME280;52495;52.208;5.158;2023-02-17T05:00:03;101649.44;;;9.39;100.00
65758;BME280;52495;52.208;5.158;2023-02-17T05:02:31;101647.72;;;9.41;100.00
65758;BME280;52495;52.208;5.158;2023-02-17T05:04:58;101662.31;;;9.39;100.00
65758;BME280;52495;52.208;5.158;2023-02-17T05:07:25;101667.47;;;9.44;100.00
65758;BME280;52495;52.208;5.158;2023-02-17T05:09:52;101664.91;;;9.47;100.00
65758;BME280;52495;52.208;5.158;2023-02-17T05:12:19;101659.75;;;9.53;100.00
65758;BME280;52495;52.208;5.158;2023-02-17T05:14:46;101652.88;;;9.49;100.00
65758;BME280;52495;52.208;5.158;2023-02-17T05:17:13;101652.88;;;9.49;100.00
65758;BME280;52495;52.208;5.158;2023-02-17T05:19:41;101641.69;;;9.55;100.00
65758;BME280;52495;52.208;5.158;2023-02-17T05:22:08;101644.28;;;9.58;100.00
65758;BME280;52495;52.208;5.158;2023-02-17T05:24:34;101648.56;;;9.61;100.00
65758;BME280;52495;52.208;5.158;2023-02-17T05:27:01;101646.00;;;9.61;100.00
65758;BME280;52495;52.208;5.158;2023-02-17T05:29:28;101651.16;;;9.56;100.00
65758;BME280;52495;52.208;5.158;2023-02-17T05:31:55;101639.97;;;9.62;100.00
65758;BME280;52495;52.208;5.158;2023-02-17T05:34:22;101649.44;;;9.60;100.00
65758;BME280;52495;52.208;5.158;2023-02-17T05:36:50;101644.28;;;9.63;100.00
65758;BME280;52495;52.208;5.158;2023-02-17T05:39:17;101637.41;;;9.54;100.00
65758;BME280;52495;52.208;5.158;2023-02-17T05:41:43;101641.69;;;9.56;100.00
65758;BME280;52495;52.208;5.158;2023-02-17T05:44:10;101636.53;;;9.56;100.00
65758;BME280;52495;52.208;5.158;2023-02-17T05:46:37;101625.38;;;9.56;100.00
65758;BME280;52495;52.208;5.158;2023-02-17T05:49:04;101619.38;;;9.57;100.00
65758;BME280;52495;52.208;5.158;2023-02-17T05:51:31;101622.81;;;9.54;100.00
65758;BME280;52495;52.208;5.158;2023-02-17T05:53:59;101616.81;;;9.55;100.00
65758;BME280;52495;52.208;5.158;2023-02-17T05:56:26;101616.78;;;9.57;100.00
65758;BME280;52495;52.208;5.158;2023-02-17T05:58:53;101615.94;;;9.58;100.00
65758;BME280;52495;52.208;5.158;2023-02-17T06:01:20;101620.22;;;9.61;100.00
65758;BME280;52495;52.208;5.158;2023-02-17T06:03:47;101605.63;;;9.61;100.00
65758;BME280;52495;52.208;5.158;2023-02-17T06:06:14;101607.31;;;9.67;100.00
65758;BME280;52495;52.208;5.158;2023-02-17T06:08:41;101617.63;;;9.68;100.00
65758;BME280;52495;52.208;5.158;2023-02-17T06:11:09;101616.75;;;9.69;100.00
65758;BME280;52495;52.208;5.158;2023-02-17T06:13:36;101622.78;;;9.76;100.00
65758;BME280;52495;52.208;5.158;2023-02-17T06:16:03;101628.78;;;9.75;100.00
65758;BME280;52495;52.208;5.158;2023-02-17T06:18:30;101617.63;;;9.78;100.00
65758;BME280;52495;52.208;5.158;2023-02-17T06:20:58;101603.00;;;9.78;100.00
65758;BME280;52495;52.208;5.158;2023-02-17T06:23:25;101603.88;;;9.79;100.00
65758;BME280;52495;52.208;5.158;2023-02-17T06:25:53;101599.56;;;9.79;100.00
65758;BME280;52495;52.208;5.158;2023-02-17T06:28:21;101584.94;;;9.78;100.00
65758;BME280;52495;52.208;5.158;2023-02-17T06:30:48;101590.13;;;9.80;100.00
65758;BME280;52495;52.208;5.158;2023-02-17T06:33:14;101579.78;;;9.78;100.00
65758;BME280;52495;52.208;5.158;2023-02-17T06:35:41;101580.63;;;9.85;100.00
65758;BME280;52495;52.208;5.158;2023-02-17T06:38:09;101572.94;;;9.82;100.00
65758;BME280;52495;52.208;5.158;2023-02-17T06:40:36;101584.09;;;9.82;100.00
65758;BME280;52495;52.208;5.158;2023-02-17T06:43:03;101600.41;;;9.83;100.00
65758;BME280;52495;52.208;5.158;2023-02-17T06:45:33;101584.09;;;9.85;100.00
65758;BME280;52495;52.208;5.158;2023-02-17T06:47:59;101566.91;;;9.87;100.00
65758;BME280;52495;52.208;5.158;2023-02-17T06:50:26;101578.06;;;9.91;100.00
65758;BME280;52495;52.208;5.158;2023-02-17T06:52:53;101568.59;;;9.90;100.00
65758;BME280;52495;52.208;5.158;2023-02-17T06:55:20;101578.06;;;9.91;100.00
65758;BME280;52495;52.208;5.158;2023-02-17T06:57:47;101567.72;;;9.88;100.00
65758;BME280;52495;52.208;5.158;2023-02-17T07:00:14;101571.19;;;9.89;100.00
65758;BME280;52495;52.208;5.158;2023-02-17T07:02:42;101581.47;;;9.92;100.00
65758;BME280;52495;52.208;5.158;2023-02-17T07:05:09;101574.59;;;9.97;100.00
65758;BME280;52495;52.208;5.158;2023-02-17T07:07:36;101582.34;;;9.95;100.00
65758;BME280;52495;52.208;5.158;2023-02-17T07:10:03;101580.63;;;9.93;100.00
65758;BME280;52495;52.208;5.158;2023-02-17T07:12:30;101605.56;;;9.92;100.00
65758;BME280;52495;52.208;5.158;2023-02-17T07:14:57;101612.44;;;9.93;100.00
65758;BME280;52495;52.208;5.158;2023-02-17T07:17:24;101611.56;;;9.99;100.00
65758;BME280;52495;52.208;5.158;2023-02-17T07:19:52;101611.59;;;9.94;100.00
65758;BME280;52495;52.208;5.158;2023-02-17T07:22:19;101608.97;;;10.00;100.00
65758;BME280;52495;52.208;5.158;2023-02-17T07:24:46;101598.66;;;10.02;100.00
65758;BME280;52495;52.208;5.158;2023-02-17T07:27:13;101597.81;;;10.03;100.00
65758;BME280;52495;52.208;5.158;2023-02-17T07:29:40;101590.91;;;10.03;100.00
65758;BME280;52495;52.208;5.158;2023-02-17T07:32:07;101593.47;;;10.10;100.00
65758;BME280;52495;52.208;5.158;2023-02-17T07:34:33;101594.34;;;10.06;100.00
65758;BME280;52495;52.208;5.158;2023-02-17T07:37:02;101589.19;;;10.06;100.00
65758;BME280;52495;52.208;5.158;2023-02-17T07:39:28;101588.31;;;10.10;100.00
65758;BME280;52495;52.208;5.158;2023-02-17T07:41:55;101595.19;;;10.11;100.00
65758;BME280;52495;52.208;5.158;2023-02-17T07:44:25;101593.47;;;10.16;100.00
65758;BME280;52495;52.208;5.158;2023-02-17T07:46:53;101596.03;;;10.14;100.00
65758;BME280;52495;52.208;5.158;2023-02-17T07:49:20;101596.88;;;10.18;100.00
65758;BME280;52495;52.208;5.158;2023-02-17T07:51:47;101584.00;;;10.16;100.00
65758;BME280;52495;52.208;5.158;2023-02-17T07:54:15;101590.88;;;10.21;100.00
65758;BME280;52495;52.208;5.158;2023-02-17T07:56:43;101601.19;;;10.19;100.00
65758;BME280;52495;52.208;5.158;2023-02-17T07:59:10;101599.47;;;10.20;100.00
65758;BME280;52495;52.208;5.158;2023-02-17T08:01:37;101596.03;;;10.21;100.00
65758;BME280;52495;52.208;5.158;2023-02-17T08:04:04;101616.69;;;10.17;100.00
65758;BME280;52495;52.208;5.158;2023-02-17T08:06:31;101629.59;;;10.21;100.00
65758;BME280;52495;52.208;5.158;2023-02-17T08:08:58;101610.66;;;10.22;100.00
65758;BME280;52495;52.208;5.158;2023-02-17T08:11:43;101604.63;;;10.24;100.00
65758;BME280;52495;52.208;5.158;2023-02-17T08:14:30;101606.34;;;10.24;100.00
65758;BME280;52495;52.208;5.158;2023-02-17T08:16:57;101612.38;;;10.20;100.00
65758;BME280;52495;52.208;5.158;2023-02-17T08:19:25;101630.44;;;10.23;100.00
65758;BME280;52495;52.208;5.158;2023-02-17T08:21:52;101646.78;;;10.18;100.00
65758;BME280;52495;52.208;5.158;2023-02-17T08:24:19;101657.09;;;10.15;100.00
65758;BME280;52495;52.208;5.158;2023-02-17T08:26:47;101663.13;;;10.11;100.00
65758;BME280;52495;52.208;5.158;2023-02-17T08:29:15;101644.22;;;10.14;100.00
65758;BME280;52495;52.208;5.158;2023-02-17T08:31:42;101656.25;;;10.10;100.00
65758;BME280;52495;52.208;5.158;2023-02-17T08:34:10;101642.50;;;10.08;100.00
65758;BME280;52495;52.208;5.158;2023-02-17T08:36:38;101637.34;;;10.11;100.00
65758;BME280;52495;52.208;5.158;2023-02-17T08:39:09;101657.13;;;10.09;100.00
65758;BME280;52495;52.208;5.158;2023-02-17T08:41:38;101660.59;;;10.05;100.00
65758;BME280;52495;52.208;5.158;2023-02-17T08:44:09;101666.59;;;10.06;100.00
65758;BME280;52495;52.208;5.158;2023-02-17T08:46:36;101668.31;;;10.02;100.00
65758;BME280;52495;52.208;5.158;2023-02-17T08:49:04;101663.16;;;10.00;100.00
65758;BME280;52495;52.208;5.158;2023-02-17T08:51:31;101670.03;;;10.01;100.00
65758;BME280;52495;52.208;5.158;2023-02-17T08:53:59;101664.00;;;10.06;100.00
65758;BME280;52495;52.208;5.158;2023-02-17T08:56:28;101652.84;;;10.05;100.00
65758;BME280;52495;52.208;5.158;2023-02-17T08:58:55;101658.84;;;10.09;100.00
65758;BME280;52495;52.208;5.158;2023-02-17T09:01:23;101658.84;;;10.09;100.00
65758;BME280;52495;52.208;5.158;2023-02-17T09:03:51;101658.84;;;10.10;100.00
65758;BME280;52495;52.208;5.158;2023-02-17T09:06:20;101660.56;;;10.10;100.00
65758;BME280;52495;52.208;5.158;2023-02-17T09:08:47;101669.16;;;10.09;100.00
65758;BME280;52495;52.208;5.158;2023-02-17T09:11:15;101654.53;;;10.12;100.00
65758;BME280;52495;52.208;5.158;2023-02-17T09:13:44;101656.25;;;10.13;100.00
65758;BME280;52495;52.208;5.158;2023-02-17T09:16:11;101669.16;;;10.15;100.00
65758;BME280;52495;52.208;5.158;2023-02-17T09:18:39;101668.28;;;10.17;100.00
65758;BME280;52495;52.208;5.158;2023-02-17T09:21:07;101652.78;;;10.19;100.00
65758;BME280;52495;52.208;5.158;2023-02-17T09:23:34;101651.06;;;10.18;100.00
65758;BME280;52495;52.208;5.158;2023-02-17T09:26:02;101648.50;;;10.21;100.00
65758;BME280;52495;52.208;5.158;2023-02-17T09:28:31;101645.03;;;10.25;100.00
65758;BME280;52495;52.208;5.158;2023-02-17T09:31:07;101650.22;;;10.19;100.00
65758;BME280;52495;52.208;5.158;2023-02-17T09:33:34;101657.09;;;10.29;100.00
65758;BME280;52495;52.208;5.158;2023-02-17T09:36:02;101650.16;;;10.35;100.00
65758;BME280;52495;52.208;5.158;2023-02-17T09:38:29;101658.78;;;10.35;100.00
65758;BME280;52495;52.208;5.158;2023-02-17T09:40:58;101659.66;;;10.40;100.00
65758;BME280;52495;52.208;5.158;2023-02-17T09:43:30;101648.47;;;10.41;100.00
65758;BME280;52495;52.208;5.158;2023-02-17T09:46:00;101644.13;;;10.46;100.00
65758;BME280;52495;52.208;5.158;2023-02-17T09:48:30;101626.94;;;10.50;100.00
65758;BME280;52495;52.208;5.158;2023-02-17T09:51:03;101626.94;;;10.50;100.00
65758;BME280;52495;52.208;5.158;2023-02-17T09:53:36;101625.19;;;10.57;100.00
65758;BME280;52495;52.208;5.158;2023-02-17T09:56:07;101628.56;;;10.62;100.00
65758;BME280;52495;52.208;5.158;2023-02-17T09:58:37;101632.00;;;10.70;100.00
65758;BME280;52495;52.208;5.158;2023-02-17T10:01:10;101633.72;;;10.70;100.00
65758;BME280;52495;52.208;5.158;2023-02-17T10:03:44;101645.75;;;10.75;100.00
65758;BME280;52495;52.208;5.158;2023-02-17T10:06:17;101654.38;;;10.70;100.00
65758;BME280;52495;52.208;5.158;2023-02-17T10:08:50;101669.88;;;10.71;100.00
65758;BME280;52495;52.208;5.158;2023-02-17T10:11:24;101666.47;;;10.65;100.00
65758;BME280;52495;52.208;5.158;2023-02-17T10:13:54;101653.56;;;10.65;100.00
65758;BME280;52495;52.208;5.158;2023-02-17T10:16:27;101661.31;;;10.65;100.00
65758;BME280;52495;52.208;5.158;2023-02-17T10:18:59;101668.16;;;10.67;100.00
65758;BME280;52495;52.208;5.158;2023-02-17T10:21:31;101681.91;;;10.68;100.00
65758;BME280;52495;52.208;5.158;2023-02-17T10:24:01;101669.88;;;10.70;100.00
65758;BME280;52495;52.208;5.158;2023-02-17T10:26:44;101675.91;;;10.70;100.00
65758;BME280;52495;52.208;5.158;2023-02-17T10:29:16;101671.56;;;10.74;100.00
65758;BME280;52495;52.208;5.158;2023-02-17T10:31:46;101669.88;;;10.71;100.00
65758;BME280;52495;52.208;5.158;2023-02-17T10:34:22;101674.19;;;10.69;100.00
65758;BME280;52495;52.208;5.158;2023-02-17T10:36:59;101673.31;;;10.69;100.00
65758;BME280;52495;52.208;5.158;2023-02-17T10:39:38;101679.31;;;10.74;100.00
65758;BME280;52495;52.208;5.158;2023-02-17T10:42:15;101676.75;;;10.74;100.00
65758;BME280;52495;52.208;5.158;2023-02-17T10:44:47;101676.78;;;10.66;100.00
65758;BME280;52495;52.208;5.158;2023-02-17T10:47:15;101676.75;;;10.75;100.00
65758;BME280;52495;52.208;5.158;2023-02-17T10:49:44;101682.72;;;10.85;100.00
65758;BME280;52495;52.208;5.158;2023-02-17T10:52:16;101670.69;;;10.83;100.00
65758;BME280;52495;52.208;5.158;2023-02-17T10:54:48;101689.59;;;10.88;100.00
65758;BME280;52495;52.208;5.158;2023-02-17T10:57:18;101702.50;;;10.86;100.00
65758;BME280;52495;52.208;5.158;2023-02-17T10:59:47;101705.94;;;10.91;100.00
65758;BME280;52495;52.208;5.158;2023-02-17T11:02:19;101705.97;;;10.90;100.00
65758;BME280;52495;52.208;5.158;2023-02-17T11:04:51;101704.19;;;10.95;100.00
65758;BME280;52495;52.208;5.158;2023-02-17T11:07:25;101713.69;;;10.95;100.00
65758;BME280;52495;52.208;5.158;2023-02-17T11:10:00;101713.69;;;10.93;100.00
65758;BME280;52495;52.208;5.158;2023-02-17T11:12:31;101719.72;;;10.97;100.00
65758;BME280;52495;52.208;5.158;2023-02-17T11:15:02;101698.16;;;10.99;100.00
65758;BME280;52495;52.208;5.158;2023-02-17T11:17:34;101705.94;;;10.93;100.00
65758;BME280;52495;52.208;5.158;2023-02-17T11:20:03;101725.72;;;11.00;100.00
65758;BME280;52495;52.208;5.158;2023-02-17T11:22:35;101725.72;;;10.97;100.00
65758;BME280;52495;52.208;5.158;2023-02-17T11:25:18;101726.59;;;10.98;100.00
65758;BME280;52495;52.208;5.158;2023-02-17T11:27:50;101733.50;;;10.92;100.00
65758;BME280;52495;52.208;5.158;2023-02-17T11:30:17;101728.31;;;10.96;100.00
65758;BME280;52495;52.208;5.158;2023-02-17T11:32:44;101734.34;;;10.96;100.00
65758;BME280;52495;52.208;5.158;2023-02-17T11:35:24;101752.47;;;10.90;100.00
65758;BME280;52495;52.208;5.158;2023-02-17T11:37:59;101751.56;;;10.94;100.00
65758;BME280;52495;52.208;5.158;2023-02-17T11:40:28;101747.28;;;10.91;100.00
65758;BME280;52495;52.208;5.158;2023-02-17T11:42:56;101753.31;;;10.90;100.00
65758;BME280;52495;52.208;5.158;2023-02-17T11:45:25;101761.94;;;10.86;100.00
65758;BME280;52495;52.208;5.158;2023-02-17T11:48:25;101747.28;;;10.93;100.00
65758;BME280;52495;52.208;5.158;2023-02-17T11:51:01;101746.44;;;10.88;100.00
65758;BME280;52495;52.208;5.158;2023-02-17T11:53:45;101751.59;;;10.88;100.00
65758;BME280;52495;52.208;5.158;2023-02-17T11:56:16;101768.84;;;10.86;100.00
65758;BME280;52495;52.208;5.158;2023-02-17T11:58:57;101754.19;;;10.88;100.00
65758;BME280;52495;52.208;5.158;2023-02-17T12:01:37;101748.16;;;10.87;100.00
65758;BME280;52495;52.208;5.158;2023-02-17T12:04:24;101753.38;;;10.75;100.00
65758;BME280;52495;52.208;5.158;2023-02-17T12:07:00;101768.03;;;10.74;100.00
65758;BME280;52495;52.208;5.158;2023-02-17T12:09:37;101765.44;;;10.65;100.00
65758;BME280;52495;52.208;5.158;2023-02-17T12:12:14;101778.38;;;10.62;100.00
65758;BME280;52495;52.208;5.158;2023-02-17T12:14:54;101780.97;;;10.63;100.00
65758;BME280;52495;52.208;5.158;2023-02-17T12:17:29;101774.91;;;10.66;100.00
65758;BME280;52495;52.208;5.158;2023-02-17T12:20:06;101791.28;;;10.57;100.00
65758;BME280;52495;52.208;5.158;2023-02-17T12:22:41;101793.03;;;10.57;100.00
65758;BME280;52495;52.208;5.158;2023-02-17T12:25:23;101793.88;;;10.56;100.00
65758;BME280;52495;52.208;5.158;2023-02-17T12:28:19;101781.84;;;10.55;100.00
65758;BME280;52495;52.208;5.158;2023-02-17T12:31:01;101804.19;;;10.57;100.00
65758;BME280;52495;52.208;5.158;2023-02-17T12:33:47;101773.22;;;10.53;100.00
65758;BME280;52495;52.208;5.158;2023-02-17T12:36:18;101793.03;;;10.54;100.00
65758;BME280;52495;52.208;5.158;2023-02-17T12:38:48;101781.84;;;10.55;100.00
65758;BME280;52495;52.208;5.158;2023-02-17T12:41:21;101783.56;;;10.53;100.00
65758;BME280;52495;52.208;5.158;2023-02-17T12:43:50;101800.78;;;10.54;100.00
65758;BME280;52495;52.208;5.158;2023-02-17T12:46:22;101805.94;;;10.51;100.00
65758;BME280;52495;52.208;5.158;2023-02-17T12:48:54;101806.78;;;10.51;100.00
65758;BME280;52495;52.208;5.158;2023-02-17T12:51:26;101797.34;;;10.50;100.00
65758;BME280;52495;52.208;5.158;2023-02-17T12:53:57;101800.78;;;10.44;100.00
65758;BME280;52495;52.208;5.158;2023-02-17T12:59:34;101783.56;;;10.50;100.00
65758;BME280;52495;52.208;5.158;2023-02-17T13:02:11;101779.25;;;10.55;100.00
65758;BME280;52495;52.208;5.158;2023-02-17T13:04:40;101786.13;;;10.59;100.00